sensor_id;sensor_type;location;lat;lon;timestamp;temperature;humidity
10149;DHT22;5115;50.920;6.376;2022-11-15T00:00:46;10.70;99.90
10149;DHT22;5115;50.920;6.376;2022-11-15T00:03:14;9.30;99.90
10149;DHT22;5115;50.920;6.376;2022-11-15T00:05:40;10.80;99.90
10149;DHT22;5115;50.920;6.376;2022-11-15T00:08:06;10.80;99.90
10149;DHT22;5115;50.920;6.376;2022-11-15T00:10:31;10.90;99.90
10149;DHT22;5115;50.920;6.376;2022-11-15T00:12:57;12.90;99.90
10149;DHT22;5115;50.920;6.376;2022-11-15T00:15:23;11.00;99.90
10149;DHT22;5115;50.920;6.376;2022-11-15T00:17:49;11.00;99.90
10149;DHT22;5115;50.920;6.376;2022-11-15T00:20:14;11.00;99.90
10149;DHT22;5115;50.920;6.376;2022-11-15T00:22:40;11.00;99.90
10149;DHT22;5115;50.920;6.376;2022-11-15T00:25:06;11.10;99.90
10149;DHT22;5115;50.920;6.376;2022-11-15T00:27:32;11.20;99.90
10149;DHT22;5115;50.920;6.376;2022-11-15T00:29:57;11.20;99.90
10149;DHT22;5115;50.920;6.376;2022-11-15T00:32:23;11.10;99.90
10149;DHT22;5115;50.920;6.376;2022-11-15T00:34:48;11.20;99.90
10149;DHT22;5115;50.920;6.376;2022-11-15T00:37:14;11.20;99.90
10149;DHT22;5115;50.920;6.376;2022-11-15T00:39:39;11.20;99.90
10149;DHT22;5115;50.920;6.376;2022-11-15T00:42:05;11.30;99.90
10149;DHT22;5115;50.920;6.376;2022-11-15T00:44:30;11.30;99.90
10149;DHT22;5115;50.920;6.376;2022-11-15T00:46:56;11.30;99.90
10149;DHT22;5115;50.920;6.376;2022-11-15T00:49:21;11.40;99.90
10149;DHT22;5115;50.920;6.376;2022-11-15T00:51:47;11.50;99.90
10149;DHT22;5115;50.920;6.376;2022-11-15T00:54:13;11.50;99.90
10149;DHT22;5115;50.920;6.376;2022-11-15T00:56:38;11.50;99.90
10149;DHT22;5115;50.920;6.376;2022-11-15T00:59:04;11.50;99.90
10149;DHT22;5115;50.920;6.376;2022-11-15T01:01:29;11.50;99.90
10149;DHT22;5115;50.920;6.376;2022-11-15T01:03:55;11.60;99.90
10149;DHT22;5115;50.920;6.376;2022-11-15T01:06:21;11.60;99.90
10149;DHT22;5115;50.920;6.376;2022-11-15T01:08:46;11.60;99.90
10149;DHT22;5115;50.920;6.376;2022-11-15T01:11:12;11.60;99.90
10149;DHT22;5115;50.920;6.376;2022-11-15T01:13:39;11.60;99.90
10149;DHT22;5115;50.920;6.376;2022-11-15T01:16:09;11.60;99.90
10149;DHT22;5115;50.920;6.376;2022-11-15T01:18:35;11.60;99.90
10149;DHT22;5115;50.920;6.376;2022-11-15T01:21:11;11.70;99.90
10149;DHT22;5115;50.920;6.376;2022-11-15T01:23:37;11.60;99.90
10149;DHT22;5115;50.920;6.376;2022-11-15T01:26:05;11.70;99.90
10149;DHT22;5115;50.920;6.376;2022-11-15T01:28:32;11.70;99.90
10149;DHT22;5115;50.920;6.376;2022-11-15T01:31:03;11.70;99.90
10149;DHT22;5115;50.920;6.376;2022-11-15T01:33:29;11.80;99.90
10149;DHT22;5115;50.920;6.376;2022-11-15T01:35:55;11.80;99.90
10149;DHT22;5115;50.920;6.376;2022-11-15T01:38:21;11.80;99.90
10149;DHT22;5115;50.920;6.376;2022-11-15T01:40:46;11.80;99.90
10149;DHT22;5115;50.920;6.376;2022-11-15T01:43:30;11.80;99.90
10149;DHT22;5115;50.920;6.376;2022-11-15T01:46:04;11.80;99.90
10149;DHT22;5115;50.920;6.376;2022-11-15T01:48:33;11.90;99.90
10149;DHT22;5115;50.920;6.376;2022-11-15T01:51:01;11.90;99.90
10149;DHT22;5115;50.920;6.376;2022-11-15T01:53:30;12.00;99.90
10149;DHT22;5115;50.920;6.376;2022-11-15T01:55:57;12.00;99.90
10149;DHT22;5115;50.920;6.376;2022-11-15T01:58:23;12.00;99.90
10149;DHT22;5115;50.920;6.376;2022-11-15T02:00:49;11.00;99.90
10149;DHT22;5115;50.920;6.376;2022-11-15T02:03:15;12.10;99.90
10149;DHT22;5115;50.920;6.376;2022-11-15T02:05:41;12.10;99.90
10149;DHT22;5115;50.920;6.376;2022-11-15T02:08:09;12.20;99.90
10149;DHT22;5115;50.920;6.376;2022-11-15T02:10:45;12.20;99.90
10149;DHT22;5115;50.920;6.376;2022-11-15T02:13:15;12.20;99.90
10149;DHT22;5115;50.920;6.376;2022-11-15T02:18:28;12.20;99.90
10149;DHT22;5115;50.920;6.376;2022-11-15T02:21:28;12.30;99.90
10149;DHT22;5115;50.920;6.376;2022-11-15T02:32:09;12.30;99.90
10149;DHT22;5115;50.920;6.376;2022-11-15T02:40:06;12.50;99.90
10149;DHT22;5115;50.920;6.376;2022-11-15T02:42:42;12.50;99.90
10149;DHT22;5115;50.920;6.376;2022-11-15T02:45:32;12.50;99.90
10149;DHT22;5115;50.920;6.376;2022-11-15T02:48:01;12.60;99.90
10149;DHT22;5115;50.920;6.376;2022-11-15T02:50:29;12.60;99.90
10149;DHT22;5115;50.920;6.376;2022-11-15T02:52:57;12.70;99.90
10149;DHT22;5115;50.920;6.376;2022-11-15T02:55:48;12.80;99.90
10149;DHT22;5115;50.920;6.376;2022-11-15T03:01:53;12.80;99.90
10149;DHT22;5115;50.920;6.376;2022-11-15T03:07:32;12.80;99.90
10149;DHT22;5115;50.920;6.376;2022-11-15T03:10:06;12.80;99.90
10149;DHT22;5115;50.920;6.376;2022-11-15T03:12:51;12.80;99.90
10149;DHT22;5115;50.920;6.376;2022-11-15T03:15:41;12.80;99.90
10149;DHT22;5115;50.920;6.376;2022-11-15T03:18:30;12.80;99.90
10149;DHT22;5115;50.920;6.376;2022-11-15T03:20:59;12.70;99.90
10149;DHT22;5115;50.920;6.376;2022-11-15T03:23:26;12.70;99.90
10149;DHT22;5115;50.920;6.376;2022-11-15T03:25:54;12.70;99.90
10149;DHT22;5115;50.920;6.376;2022-11-15T03:28:30;12.70;99.90
10149;DHT22;5115;50.920;6.376;2022-11-15T03:30:59;12.70;99.90
10149;DHT22;5115;50.920;6.376;2022-11-15T03:33:27;12.60;99.90
10149;DHT22;5115;50.920;6.376;2022-11-15T03:35:55;12.60;99.90
10149;DHT22;5115;50.920;6.376;2022-11-15T03:38:30;12.60;99.90
10149;DHT22;5115;50.920;6.376;2022-11-15T03:40:59;12.70;99.90
10149;DHT22;5115;50.920;6.376;2022-11-15T03:43:41;12.60;99.90
10149;DHT22;5115;50.920;6.376;2022-11-15T03:46:46;12.60;99.90
10149;DHT22;5115;50.920;6.376;2022-11-15T03:49:24;12.60;99.90
10149;DHT22;5115;50.920;6.376;2022-11-15T03:51:51;12.60;99.90
10149;DHT22;5115;50.920;6.376;2022-11-15T03:54:16;12.60;99.90
10149;DHT22;5115;50.920;6.376;2022-11-15T03:56:42;12.60;99.90
10149;DHT22;5115;50.920;6.376;2022-11-15T03:59:08;12.60;99.90
10149;DHT22;5115;50.920;6.376;2022-11-15T04:01:33;12.70;99.90
10149;DHT22;5115;50.920;6.376;2022-11-15T04:03:59;11.80;99.90
10149;DHT22;5115;50.920;6.376;2022-11-15T04:06:27;12.60;99.90
10149;DHT22;5115;50.920;6.376;2022-11-15T04:08:55;12.60;99.90
10149;DHT22;5115;50.920;6.376;2022-11-15T04:11:21;12.60;99.90
10149;DHT22;5115;50.920;6.376;2022-11-15T04:13:47;12.60;99.90
10149;DHT22;5115;50.920;6.376;2022-11-15T04:16:12;12.70;99.90
10149;DHT22;5115;50.920;6.376;2022-11-15T04:18:38;12.60;99.90
10149;DHT22;5115;50.920;6.376;2022-11-15T04:21:03;12.60;99.90
10149;DHT22;5115;50.920;6.376;2022-11-15T04:23:48;12.40;99.90
10149;DHT22;5115;50.920;6.376;2022-11-15T04:26:32;12.40;99.90
10149;DHT22;5115;50.920;6.376;2022-11-15T04:28:58;12.40;99.90
10149;DHT22;5115;50.920;6.376;2022-11-15T04:31:42;12.40;99.90
10149;DHT22;5115;50.920;6.376;2022-11-15T04:34:08;12.40;99.90
10149;DHT22;5115;50.920;6.376;2022-11-15T04:36:33;12.40;99.90
10149;DHT22;5115;50.920;6.376;2022-11-15T04:39:17;12.40;99.90
10149;DHT22;5115;50.920;6.376;2022-11-15T04:41:43;12.30;99.90
10149;DHT22;5115;50.920;6.376;2022-11-15T04:44:09;12.30;99.90
10149;DHT22;5115;50.920;6.376;2022-11-15T04:46:35;12.30;99.90
10149;DHT22;5115;50.920;6.376;2022-11-15T04:49:00;12.30;99.90
10149;DHT22;5115;50.920;6.376;2022-11-15T04:51:26;12.30;99.90
10149;DHT22;5115;50.920;6.376;2022-11-15T04:53:51;12.30;99.90
10149;DHT22;5115;50.920;6.376;2022-11-15T04:56:17;12.40;99.90
10149;DHT22;5115;50.920;6.376;2022-11-15T04:58:42;12.40;99.90
10149;DHT22;5115;50.920;6.376;2022-11-15T05:01:12;12.40;99.90
10149;DHT22;5115;50.920;6.376;2022-11-15T05:03:43;12.40;99.90
10149;DHT22;5115;50.920;6.376;2022-11-15T05:06:27;12.30;99.90
10149;DHT22;5115;50.920;6.376;2022-11-15T05:08:53;12.40;99.90
10149;DHT22;5115;50.920;6.376;2022-11-15T05:11:19;12.40;99.90
10149;DHT22;5115;50.920;6.376;2022-11-15T05:13:46;12.40;99.90
10149;DHT22;5115;50.920;6.376;2022-11-15T05:16:11;12.40;99.90
10149;DHT22;5115;50.920;6.376;2022-11-15T05:18:37;12.40;99.90
10149;DHT22;5115;50.920;6.376;2022-11-15T05:21:11;12.50;99.90
10149;DHT22;5115;50.920;6.376;2022-11-15T05:23:38;12.40;99.90
10149;DHT22;5115;50.920;6.376;2022-11-15T05:26:05;12.40;99.90
10149;DHT22;5115;50.920;6.376;2022-11-15T05:28:32;12.40;99.90
10149;DHT22;5115;50.920;6.376;2022-11-15T05:31:24;12.30;99.90
10149;DHT22;5115;50.920;6.376;2022-11-15T05:33:51;12.30;99.90
10149;DHT22;5115;50.920;6.376;2022-11-15T05:36:22;12.30;99.90
10149;DHT22;5115;50.920;6.376;2022-11-15T05:38:51;12.30;99.90
10149;DHT22;5115;50.920;6.376;2022-11-15T05:41:19;12.20;99.90
10149;DHT22;5115;50.920;6.376;2022-11-15T05:43:46;12.20;99.90
10149;DHT22;5115;50.920;6.376;2022-11-15T05:46:13;12.10;99.90
10149;DHT22;5115;50.920;6.376;2022-11-15T05:48:41;12.00;99.90
10149;DHT22;5115;50.920;6.376;2022-11-15T05:51:08;12.00;99.90
10149;DHT22;5115;50.920;6.376;2022-11-15T05:53:35;12.00;99.90
10149;DHT22;5115;50.920;6.376;2022-11-15T05:56:03;12.00;99.90
10149;DHT22;5115;50.920;6.376;2022-11-15T05:58:32;12.00;99.90
10149;DHT22;5115;50.920;6.376;2022-11-15T06:01:01;12.00;99.90
10149;DHT22;5115;50.920;6.376;2022-11-15T06:03:26;12.00;99.90
10149;DHT22;5115;50.920;6.376;2022-11-15T06:05:52;12.00;99.90
10149;DHT22;5115;50.920;6.376;2022-11-15T06:08:17;12.00;99.90
10149;DHT22;5115;50.920;6.376;2022-11-15T06:10:43;12.00;99.90
10149;DHT22;5115;50.920;6.376;2022-11-15T06:13:09;12.00;99.90
10149;DHT22;5115;50.920;6.376;2022-11-15T06:15:34;12.00;99.90
10149;DHT22;5115;50.920;6.376;2022-11-15T06:18:00;12.00;99.90
10149;DHT22;5115;50.920;6.376;2022-11-15T06:20:27;11.90;99.90
10149;DHT22;5115;50.920;6.376;2022-11-15T06:22:58;11.90;99.90
10149;DHT22;5115;50.920;6.376;2022-11-15T06:25:24;11.90;99.90
10149;DHT22;5115;50.920;6.376;2022-11-15T06:27:53;11.90;99.90
10149;DHT22;5115;50.920;6.376;2022-11-15T06:30:20;11.90;99.90
10149;DHT22;5115;50.920;6.376;2022-11-15T06:32:45;11.90;99.90
10149;DHT22;5115;50.920;6.376;2022-11-15T06:35:11;12.00;99.90
10149;DHT22;5115;50.920;6.376;2022-11-15T06:37:36;12.10;99.90
10149;DHT22;5115;50.920;6.376;2022-11-15T06:40:02;12.10;99.90
10149;DHT22;5115;50.920;6.376;2022-11-15T06:42:28;12.10;99.90
10149;DHT22;5115;50.920;6.376;2022-11-15T06:44:53;12.20;99.90
10149;DHT22;5115;50.920;6.376;2022-11-15T06:47:19;12.10;99.90
10149;DHT22;5115;50.920;6.376;2022-11-15T06:49:44;12.20;99.90
10149;DHT22;5115;50.920;6.376;2022-11-15T06:52:10;12.20;99.90
10149;DHT22;5115;50.920;6.376;2022-11-15T06:54:36;12.20;99.90
10149;DHT22;5115;50.920;6.376;2022-11-15T06:57:04;12.30;99.90
10149;DHT22;5115;50.920;6.376;2022-11-15T06:59:30;12.30;99.90
10149;DHT22;5115;50.920;6.376;2022-11-15T07:01:55;12.30;99.90
10149;DHT22;5115;50.920;6.376;2022-11-15T07:04:21;12.40;99.90
10149;DHT22;5115;50.920;6.376;2022-11-15T07:06:47;12.50;99.90
10149;DHT22;5115;50.920;6.376;2022-11-15T07:09:13;12.50;99.90
10149;DHT22;5115;50.920;6.376;2022-11-15T07:11:39;12.60;99.90
10149;DHT22;5115;50.920;6.376;2022-11-15T07:14:05;12.60;99.90
10149;DHT22;5115;50.920;6.376;2022-11-15T07:16:31;12.70;99.90
10149;DHT22;5115;50.920;6.376;2022-11-15T07:18:56;12.80;99.90
10149;DHT22;5115;50.920;6.376;2022-11-15T07:21:22;12.80;99.90
10149;DHT22;5115;50.920;6.376;2022-11-15T07:23:47;12.80;99.90
10149;DHT22;5115;50.920;6.376;2022-11-15T07:26:13;12.70;99.90
10149;DHT22;5115;50.920;6.376;2022-11-15T07:28:39;14.50;99.90
10149;DHT22;5115;50.920;6.376;2022-11-15T07:31:07;12.90;99.90
10149;DHT22;5115;50.920;6.376;2022-11-15T07:33:33;13.20;99.90
10149;DHT22;5115;50.920;6.376;2022-11-15T07:36:00;13.30;99.90
10149;DHT22;5115;50.920;6.376;2022-11-15T07:38:27;13.40;99.90
10149;DHT22;5115;50.920;6.376;2022-11-15T07:41:01;13.60;99.90
10149;DHT22;5115;50.920;6.376;2022-11-15T07:43:27;13.70;99.90
10149;DHT22;5115;50.920;6.376;2022-11-15T07:45:56;13.70;99.90
10149;DHT22;5115;50.920;6.376;2022-11-15T07:48:22;13.70;99.90
10149;DHT22;5115;50.920;6.376;2022-11-15T07:50:47;13.70;99.90
10149;DHT22;5115;50.920;6.376;2022-11-15T07:53:13;13.70;99.90
10149;DHT22;5115;50.920;6.376;2022-11-15T07:55:41;13.80;99.90
10149;DHT22;5115;50.920;6.376;2022-11-15T07:58:09;13.80;99.90
10149;DHT22;5115;50.920;6.376;2022-11-15T08:00:35;13.90;99.90
10149;DHT22;5115;50.920;6.376;2022-11-15T08:03:06;14.00;99.90
10149;DHT22;5115;50.920;6.376;2022-11-15T08:05:32;14.20;99.90
10149;DHT22;5115;50.920;6.376;2022-11-15T08:07:58;14.20;99.90
10149;DHT22;5115;50.920;6.376;2022-11-15T08:10:25;14.30;99.90
10149;DHT22;5115;50.920;6.376;2022-11-15T08:13:02;14.40;99.90
10149;DHT22;5115;50.920;6.376;2022-11-15T08:15:28;14.50;99.90
10149;DHT22;5115;50.920;6.376;2022-11-15T08:17:58;14.70;99.90
10149;DHT22;5115;50.920;6.376;2022-11-15T08:20:25;14.80;99.90
10149;DHT22;5115;50.920;6.376;2022-11-15T08:22:51;15.00;99.90
10149;DHT22;5115;50.920;6.376;2022-11-15T08:25:17;15.40;99.90
10149;DHT22;5115;50.920;6.376;2022-11-15T08:27:43;16.10;99.90
10149;DHT22;5115;50.920;6.376;2022-11-15T08:30:08;16.70;99.90
10149;DHT22;5115;50.920;6.376;2022-11-15T08:32:34;17.00;99.90
10149;DHT22;5115;50.920;6.376;2022-11-15T08:35:00;17.30;99.90
10149;DHT22;5115;50.920;6.376;2022-11-15T08:37:25;17.60;99.90
10149;DHT22;5115;50.920;6.376;2022-11-15T08:39:51;17.60;99.90
10149;DHT22;5115;50.920;6.376;2022-11-15T08:42:16;17.70;99.90
10149;DHT22;5115;50.920;6.376;2022-11-15T08:44:42;18.00;99.90
10149;DHT22;5115;50.920;6.376;2022-11-15T08:47:10;18.40;99.90
10149;DHT22;5115;50.920;6.376;2022-11-15T08:49:36;18.60;99.90
10149;DHT22;5115;50.920;6.376;2022-11-15T08:52:02;19.20;99.90
10149;DHT22;5115;50.920;6.376;2022-11-15T08:54:27;20.10;99.90
10149;DHT22;5115;50.920;6.376;2022-11-15T08:56:53;19.50;99.90
10149;DHT22;5115;50.920;6.376;2022-11-15T08:59:18;19.30;99.90
10149;DHT22;5115;50.920;6.376;2022-11-15T09:01:45;19.20;99.90
10149;DHT22;5115;50.920;6.376;2022-11-15T09:04:11;18.90;99.90
10149;DHT22;5115;50.920;6.376;2022-11-15T09:06:36;19.00;99.90
10149;DHT22;5115;50.920;6.376;2022-11-15T09:09:02;18.70;99.90
10149;DHT22;5115;50.920;6.376;2022-11-15T09:11:28;18.60;99.90
10149;DHT22;5115;50.920;6.376;2022-11-15T09:13:54;18.60;99.90
10149;DHT22;5115;50.920;6.376;2022-11-15T09:16:19;18.90;99.90
10149;DHT22;5115;50.920;6.376;2022-11-15T09:18:45;18.90;99.90
10149;DHT22;5115;50.920;6.376;2022-11-15T09:21:11;18.40;99.90
10149;DHT22;5115;50.920;6.376;2022-11-15T09:23:36;18.20;99.90
10149;DHT22;5115;50.920;6.376;2022-11-15T09:26:03;18.30;99.90
10149;DHT22;5115;50.920;6.376;2022-11-15T09:28:29;18.60;99.90
10149;DHT22;5115;50.920;6.376;2022-11-15T09:30:57;19.00;99.90
10149;DHT22;5115;50.920;6.376;2022-11-15T09:33:23;19.50;99.90
10149;DHT22;5115;50.920;6.376;2022-11-15T09:35:49;20.10;99.90
10149;DHT22;5115;50.920;6.376;2022-11-15T09:38:15;20.20;99.90
10149;DHT22;5115;50.920;6.376;2022-11-15T09:40:40;20.60;99.90
10149;DHT22;5115;50.920;6.376;2022-11-15T09:46:27;22.00;99.90
10149;DHT22;5115;50.920;6.376;2022-11-15T09:48:59;21.10;99.90
10149;DHT22;5115;50.920;6.376;2022-11-15T09:56:31;21.80;99.90
10149;DHT22;5115;50.920;6.376;2022-11-15T09:59:51;21.90;99.90
10149;DHT22;5115;50.920;6.376;2022-11-15T10:02:01;22.30;99.90
10149;DHT22;5115;50.920;6.376;2022-11-15T10:04:30;21.10;99.90
10149;DHT22;5115;50.920;6.376;2022-11-15T10:09:45;20.80;99.90
10149;DHT22;5115;50.920;6.376;2022-11-15T10:12:13;20.60;99.90
10149;DHT22;5115;50.920;6.376;2022-11-15T10:14:40;20.30;99.90
10149;DHT22;5115;50.920;6.376;2022-11-15T10:22:40;20.10;99.90
10149;DHT22;5115;50.920;6.376;2022-11-15T10:25:27;19.90;99.90
10149;DHT22;5115;50.920;6.376;2022-11-15T10:30:21;19.50;99.90
10149;DHT22;5115;50.920;6.376;2022-11-15T10:32:48;19.50;99.90
10149;DHT22;5115;50.920;6.376;2022-11-15T10:35:24;19.40;99.90
10149;DHT22;5115;50.920;6.376;2022-11-15T10:37:50;19.50;99.90
10149;DHT22;5115;50.920;6.376;2022-11-15T10:40:23;19.60;99.90
10149;DHT22;5115;50.920;6.376;2022-11-15T10:43:17;19.40;99.90
10149;DHT22;5115;50.920;6.376;2022-11-15T10:45:43;19.40;99.90
10149;DHT22;5115;50.920;6.376;2022-11-15T10:50:40;19.40;99.90
10149;DHT22;5115;50.920;6.376;2022-11-15T10:55:51;19.80;99.90
10149;DHT22;5115;50.920;6.376;2022-11-15T11:01:29;19.50;99.90
10149;DHT22;5115;50.920;6.376;2022-11-15T11:06:26;19.00;99.90
10149;DHT22;5115;50.920;6.376;2022-11-15T11:09:05;18.30;99.90
10149;DHT22;5115;50.920;6.376;2022-11-15T11:11:46;18.30;99.90
10149;DHT22;5115;50.920;6.376;2022-11-15T11:14:22;17.40;99.90
10149;DHT22;5115;50.920;6.376;2022-11-15T11:19:46;17.00;99.90
10149;DHT22;5115;50.920;6.376;2022-11-15T11:22:35;16.80;99.90
10149;DHT22;5115;50.920;6.376;2022-11-15T11:33:54;16.30;99.90
10149;DHT22;5115;50.920;6.376;2022-11-15T11:36:50;16.20;99.90
10149;DHT22;5115;50.920;6.376;2022-11-15T11:42:23;16.10;99.90
10149;DHT22;5115;50.920;6.376;2022-11-15T11:47:39;16.20;99.90
10149;DHT22;5115;50.920;6.376;2022-11-15T11:52:38;16.20;99.90
10149;DHT22;5115;50.920;6.376;2022-11-15T11:55:15;16.60;99.90
10149;DHT22;5115;50.920;6.376;2022-11-15T12:00:14;16.20;99.90
10149;DHT22;5115;50.920;6.376;2022-11-15T12:02:59;16.20;99.90
10149;DHT22;5115;50.920;6.376;2022-11-15T12:05:42;16.30;99.90
10149;DHT22;5115;50.920;6.376;2022-11-15T12:08:38;15.90;99.90
10149;DHT22;5115;50.920;6.376;2022-11-15T12:11:12;15.80;99.90
10149;DHT22;5115;50.920;6.376;2022-11-15T12:13:40;15.70;99.90
10149;DHT22;5115;50.920;6.376;2022-11-15T12:16:18;15.70;99.90
10149;DHT22;5115;50.920;6.376;2022-11-15T12:18:50;15.70;99.90
10149;DHT22;5115;50.920;6.376;2022-11-15T12:21:34;15.70;99.90
10149;DHT22;5115;50.920;6.376;2022-11-15T12:24:04;13.20;99.90
10149;DHT22;5115;50.920;6.376;2022-11-15T12:26:39;15.80;99.90
10149;DHT22;5115;50.920;6.376;2022-11-15T12:29:19;15.70;99.90
10149;DHT22;5115;50.920;6.376;2022-11-15T12:31:50;15.60;99.90
10149;DHT22;5115;50.920;6.376;2022-11-15T12:36:45;15.70;99.90
10149;DHT22;5115;50.920;6.376;2022-11-15T12:39:13;15.70;99.90
10149;DHT22;5115;50.920;6.376;2022-11-15T12:41:40;15.70;99.90
10149;DHT22;5115;50.920;6.376;2022-11-15T13:02:42;15.90;99.90
10149;DHT22;5115;50.920;6.376;2022-11-15T13:17:49;15.60;99.90
10149;DHT22;5115;50.920;6.376;2022-11-15T13:23:07;15.60;99.90
10149;DHT22;5115;50.920;6.376;2022-11-15T13:25:55;15.60;99.90
10149;DHT22;5115;50.920;6.376;2022-11-15T13:31:13;15.50;99.90
10149;DHT22;5115;50.920;6.376;2022-11-15T13:33:41;15.50;99.90
10149;DHT22;5115;50.920;6.376;2022-11-15T13:36:15;15.50;99.90
10149;DHT22;5115;50.920;6.376;2022-11-15T13:39:04;15.60;99.90
10149;DHT22;5115;50.920;6.376;2022-11-15T13:41:35;15.60;99.90
10149;DHT22;5115;50.920;6.376;2022-11-15T13:44:03;15.70;99.90
10149;DHT22;5115;50.920;6.376;2022-11-15T13:46:33;15.50;99.90
10149;DHT22;5115;50.920;6.376;2022-11-15T13:49:02;15.40;99.90
10149;DHT22;5115;50.920;6.376;2022-11-15T13:51:37;15.40;99.90
10149;DHT22;5115;50.920;6.376;2022-11-15T13:56:39;15.50;99.90
10149;DHT22;5115;50.920;6.376;2022-11-15T13:59:14;15.40;99.90
10149;DHT22;5115;50.920;6.376;2022-11-15T14:01:41;15.30;99.90
10149;DHT22;5115;50.920;6.376;2022-11-15T14:04:12;15.40;99.90
10149;DHT22;5115;50.920;6.376;2022-11-15T14:06:45;15.30;99.90
10149;DHT22;5115;50.920;6.376;2022-11-15T14:09:29;15.30;99.90
10149;DHT22;5115;50.920;6.376;2022-11-15T14:11:56;15.30;99.90
10149;DHT22;5115;50.920;6.376;2022-11-15T14:14:29;15.30;99.90
10149;DHT22;5115;50.920;6.376;2022-11-15T14:16:57;15.30;99.90
10149;DHT22;5115;50.920;6.376;2022-11-15T14:22:11;15.30;99.90
10149;DHT22;5115;50.920;6.376;2022-11-15T14:24:38;15.30;99.90
10149;DHT22;5115;50.920;6.376;2022-11-15T14:27:27;15.30;99.90
10149;DHT22;5115;50.920;6.376;2022-11-15T14:29:54;15.20;99.90
10149;DHT22;5115;50.920;6.376;2022-11-15T14:32:26;15.20;99.90
10149;DHT22;5115;50.920;6.376;2022-11-15T14:35:00;15.30;99.90
10149;DHT22;5115;50.920;6.376;2022-11-15T14:37:31;15.30;99.90
10149;DHT22;5115;50.920;6.376;2022-11-15T14:39:59;15.30;99.90
10149;DHT22;5115;50.920;6.376;2022-11-15T14:42:25;15.30;99.90
10149;DHT22;5115;50.920;6.376;2022-11-15T14:44:51;15.30;99.90
10149;DHT22;5115;50.920;6.376;2022-11-15T14:47:17;15.30;99.90
10149;DHT22;5115;50.920;6.376;2022-11-15T14:49:43;15.10;99.90
10149;DHT22;5115;50.920;6.376;2022-11-15T14:52:29;15.10;99.90
10149;DHT22;5115;50.920;6.376;2022-11-15T14:57:22;15.10;99.90
10149;DHT22;5115;50.920;6.376;2022-11-15T14:59:47;15.10;99.90
10149;DHT22;5115;50.920;6.376;2022-11-15T15:02:22;15.00;99.90
10149;DHT22;5115;50.920;6.376;2022-11-15T15:07:17;14.90;99.90
10149;DHT22;5115;50.920;6.376;2022-11-15T15:09:46;14.80;99.90
10149;DHT22;5115;50.920;6.376;2022-11-15T15:12:19;14.80;99.90
10149;DHT22;5115;50.920;6.376;2022-11-15T15:14:47;14.80;99.90
10149;DHT22;5115;50.920;6.376;2022-11-15T15:17:13;14.80;99.90
10149;DHT22;5115;50.920;6.376;2022-11-15T15:19:38;14.80;99.90
10149;DHT22;5115;50.920;6.376;2022-11-15T15:22:04;14.70;99.90
10149;DHT22;5115;50.920;6.376;2022-11-15T15:24:30;14.80;99.90
10149;DHT22;5115;50.920;6.376;2022-11-15T15:26:55;14.80;99.90
10149;DHT22;5115;50.920;6.376;2022-11-15T15:29:21;14.70;99.90
10149;DHT22;5115;50.920;6.376;2022-11-15T15:31:46;14.70;99.90
10149;DHT22;5115;50.920;6.376;2022-11-15T15:34:12;14.70;99.90
10149;DHT22;5115;50.920;6.376;2022-11-15T15:36:38;14.70;99.90
10149;DHT22;5115;50.920;6.376;2022-11-15T15:41:29;14.70;99.90
10149;DHT22;5115;50.920;6.376;2022-11-15T15:43:55;14.60;99.90
10149;DHT22;5115;50.920;6.376;2022-11-15T15:46:20;14.60;99.90
10149;DHT22;5115;50.920;6.376;2022-11-15T15:48:46;14.60;99.90
10149;DHT22;5115;50.920;6.376;2022-11-15T15:51:12;14.50;99.90
10149;DHT22;5115;50.920;6.376;2022-11-15T15:53:39;14.60;99.90
10149;DHT22;5115;50.920;6.376;2022-11-15T15:56:05;14.60;99.90
10149;DHT22;5115;50.920;6.376;2022-11-15T15:58:33;14.50;99.90
10149;DHT22;5115;50.920;6.376;2022-11-15T16:00:59;14.40;99.90
10149;DHT22;5115;50.920;6.376;2022-11-15T16:05:53;14.40;99.90
10149;DHT22;5115;50.920;6.376;2022-11-15T16:08:20;14.50;99.90
10149;DHT22;5115;50.920;6.376;2022-11-15T16:10:46;14.50;99.90
10149;DHT22;5115;50.920;6.376;2022-11-15T16:13:12;14.50;99.90
10149;DHT22;5115;50.920;6.376;2022-11-15T16:15:38;14.50;99.90
10149;DHT22;5115;50.920;6.376;2022-11-15T16:18:05;14.50;99.90
10149;DHT22;5115;50.920;6.376;2022-11-15T16:20:37;14.30;99.90
10149;DHT22;5115;50.920;6.376;2022-11-15T16:23:06;14.30;99.90
10149;DHT22;5115;50.920;6.376;2022-11-15T16:25:41;14.30;99.90
10149;DHT22;5115;50.920;6.376;2022-11-15T16:28:21;14.30;99.90
10149;DHT22;5115;50.920;6.376;2022-11-15T16:30:47;14.30;99.90
10149;DHT22;5115;50.920;6.376;2022-11-15T16:33:13;14.30;99.90
10149;DHT22;5115;50.920;6.376;2022-11-15T16:35:39;14.30;99.90
10149;DHT22;5115;50.920;6.376;2022-11-15T16:38:05;14.20;99.90
10149;DHT22;5115;50.920;6.376;2022-11-15T16:40:33;14.30;99.90
10149;DHT22;5115;50.920;6.376;2022-11-15T16:43:00;14.20;99.90
10149;DHT22;5115;50.920;6.376;2022-11-15T16:45:27;14.20;99.90
10149;DHT22;5115;50.920;6.376;2022-11-15T16:47:55;14.20;99.90
10149;DHT22;5115;50.920;6.376;2022-11-15T16:50:24;14.20;99.90
10149;DHT22;5115;50.920;6.376;2022-11-15T16:53:00;14.00;99.90
10149;DHT22;5115;50.920;6.376;2022-11-15T16:55:28;14.00;99.90
10149;DHT22;5115;50.920;6.376;2022-11-15T16:57:54;14.00;99.90
10149;DHT22;5115;50.920;6.376;2022-11-15T17:00:23;14.00;99.90
10149;DHT22;5115;50.920;6.376;2022-11-15T17:02:49;13.80;99.90
10149;DHT22;5115;50.920;6.376;2022-11-15T17:05:17;13.60;99.90
10149;DHT22;5115;50.920;6.376;2022-11-15T17:07:47;13.60;99.90
10149;DHT22;5115;50.920;6.376;2022-11-15T17:10:18;13.60;99.90
10149;DHT22;5115;50.920;6.376;2022-11-15T17:15:11;13.60;99.90
10149;DHT22;5115;50.920;6.376;2022-11-15T17:17:37;13.40;99.90
10149;DHT22;5115;50.920;6.376;2022-11-15T17:20:04;13.20;99.90
10149;DHT22;5115;50.920;6.376;2022-11-15T17:22:37;13.20;99.90
10149;DHT22;5115;50.920;6.376;2022-11-15T17:25:03;13.20;99.90
10149;DHT22;5115;50.920;6.376;2022-11-15T17:27:30;13.10;99.90
10149;DHT22;5115;50.920;6.376;2022-11-15T17:29:56;13.00;99.90
10149;DHT22;5115;50.920;6.376;2022-11-15T17:37:13;12.90;99.90
10149;DHT22;5115;50.920;6.376;2022-11-15T17:39:39;12.80;99.90
10149;DHT22;5115;50.920;6.376;2022-11-15T17:44:31;12.80;99.90
10149;DHT22;5115;50.920;6.376;2022-11-15T17:46:57;12.70;99.90
10149;DHT22;5115;50.920;6.376;2022-11-15T17:49:22;12.70;99.90
10149;DHT22;5115;50.920;6.376;2022-11-15T17:54:14;12.50;99.90
10149;DHT22;5115;50.920;6.376;2022-11-15T17:56:40;12.50;99.90
10149;DHT22;5115;50.920;6.376;2022-11-15T17:59:06;12.60;99.90
10149;DHT22;5115;50.920;6.376;2022-11-15T18:01:34;12.60;99.90
10149;DHT22;5115;50.920;6.376;2022-11-15T18:04:01;12.50;99.90
10149;DHT22;5115;50.920;6.376;2022-11-15T18:06:29;12.60;99.90
10149;DHT22;5115;50.920;6.376;2022-11-15T18:08:55;12.70;99.90
10149;DHT22;5115;50.920;6.376;2022-11-15T18:11:29;12.70;99.90
10149;DHT22;5115;50.920;6.376;2022-11-15T18:13:57;12.60;99.90
10149;DHT22;5115;50.920;6.376;2022-11-15T18:16:26;12.60;99.90
10149;DHT22;5115;50.920;6.376;2022-11-15T18:21:20;12.70;99.90